Time;durP1;ratioP1;P1;durP2;ratioP2;P2;SDS_P1;SDS_P2;PMS_P1;PMS_P2;Temp;Humidity;BMP_temperature;BMP_pressure;BME280_temperature;BME280_humidity;BME280_pressure;Samples;Min_cycle;Max_cycle;Signal;HPM_P1;HPM_P2
2022/06/07 00:02:40;;;;;;;2.70;2.45;;;21.20;47.20;;;19.33;49.64;101004.53;12242310;19;20022;-84
2022/06/07 00:06:41;;;;;;;2.63;2.42;;;21.20;47.30;;;19.38;49.70;101012.06;12241488;19;20011;-84
2022/06/07 00:10:45;;;;;;;2.70;2.50;;;21.10;47.20;;;19.27;49.94;100997.13;12249061;19;20745;-84
2022/06/07 00:14:47;;;;;;;2.85;2.65;;;21.20;47.30;;;19.07;49.94;100968.94;12247076;19;20023;-84
2022/06/07 00:18:49;;;;;;;4.65;2.53;;;21.10;47.10;;;19.27;49.74;101017.47;12247157;19;20011;-83
2022/06/07 00:22:51;;;;;;;3.03;2.72;;;21.20;47.10;;;19.20;49.76;101015.38;12244515;19;20014;-84
2022/06/07 00:26:53;;;;;;;2.47;2.28;;;21.10;47.00;;;18.97;49.92;100971.53;12243623;19;20017;-83
2022/06/07 00:30:55;;;;;;;2.55;2.35;;;21.00;47.00;;;19.14;49.78;101009.75;12247562;19;20018;-84
2022/06/07 00:34:57;;;;;;;2.53;2.30;;;21.10;47.00;;;19.19;50.00;101028.72;12245251;19;20015;-84
2022/06/07 00:38:58;;;;;;;3.63;2.60;;;21.00;47.10;;;19.14;50.00;101020.34;12246987;19;20018;-83
2022/06/07 00:43:00;;;;;;;1.95;1.85;;;20.90;47.10;;;18.90;50.12;100981.81;12241854;19;20018;-84
2022/06/07 00:47:11;;;;;;;2.50;2.30;;;20.90;47.00;;;19.07;50.06;101013.94;12245165;19;20426;-83
2022/06/07 00:51:13;;;;;;;2.70;2.47;;;21.10;47.30;;;18.95;49.91;101014.00;12244822;19;20019;-84
2022/06/07 00:55:17;;;;;;;4.65;2.55;;;20.80;47.10;;;18.92;50.08;101019.56;12243661;19;20022;-83
2022/06/07 00:59:24;;;;;;;2.63;2.42;;;20.70;47.00;;;18.86;50.41;101013.97;12244175;19;20021;-84
2022/06/07 01:03:26;;;;;;;2.40;2.20;;;20.60;47.10;;;18.81;50.14;101006.41;12241194;19;20033;-83
2022/06/07 01:11:52;;;;;;;2.88;2.67;;;20.60;47.20;;;18.61;50.08;100986.91;12242662;19;20025;-84
2022/06/07 01:16:04;;;;;;;2.20;1.98;;;20.60;47.10;;;18.65;50.44;100993.59;12240131;19;20018;-84
2022/06/07 01:20:11;;;;;;;2.40;2.20;;;20.50;47.40;;;18.68;50.40;100992.50;12233365;19;20011;-84
2022/06/07 01:24:15;;;;;;;2.67;2.22;;;20.50;47.30;;;18.54;50.62;100970.72;12243609;19;20031;-84
2022/06/07 01:28:29;;;;;;;2.65;2.45;;;20.50;47.40;;;18.48;50.49;100965.94;12240352;19;20034;-84
2022/06/07 01:32:31;;;;;;;2.53;2.35;;;20.40;47.30;;;18.43;50.58;100959.38;12241927;19;20137;-84
2022/06/07 01:36:33;;;;;;;2.40;2.20;;;20.50;47.40;;;18.45;50.47;100971.50;12238101;19;20472;-84
2022/06/07 01:44:56;;;;;;;2.40;2.20;;;20.30;47.50;;;18.46;50.62;100962.59;12243222;19;20022;-83
2022/06/07 01:48:58;;;;;;;3.05;2.33;;;20.30;47.70;;;18.38;50.57;100964.22;12239661;19;20010;-84
2022/06/07 01:52:59;;;;;;;2.40;2.20;;;20.30;47.60;;;18.42;50.64;100960.34;12239634;19;20014;-84
2022/06/07 01:57:05;;;;;;;2.55;2.35;;;20.20;47.80;;;18.39;50.74;100966.75;12237054;19;20390;-84
2022/06/07 02:01:08;;;;;;;3.00;2.80;;;20.30;47.90;;;17.83;51.02;100869.25;12238580;19;20090;-84
2022/06/07 02:05:10;;;;;;;2.47;2.28;;;20.20;47.90;;;18.36;51.08;100959.03;12239804;19;20014;-84
2022/06/07 02:09:14;;;;;;;2.45;2.25;;;20.20;47.90;;;18.36;50.99;100961.69;12239804;19;20090;-84
2022/06/07 02:13:16;;;;;;;2.15;2.03;;;20.20;48.00;;;18.29;51.11;100944.69;12237818;19;20757;-84
2022/06/07 02:17:19;;;;;;;4.93;2.53;;;20.20;48.10;;;18.27;51.15;100952.72;12237674;19;20509;-84
2022/06/07 02:21:32;;;;;;;2.75;2.33;;;20.20;48.20;;;18.15;51.26;100924.69;12237695;19;20476;-83
2022/06/07 02:25:52;;;;;;;3.08;2.45;;;20.40;48.30;;;18.33;51.41;100946.09;12236362;19;20484;-84
2022/06/07 02:29:55;;;;;;;2.42;2.22;;;20.20;48.50;;;18.30;51.27;100936.59;12237018;19;20074;-84
2022/06/07 02:33:59;;;;;;;2.60;2.40;;;20.20;48.30;;;18.35;51.32;100942.34;12240360;19;20014;-84
2022/06/07 02:38:02;;;;;;;3.20;2.30;;;20.10;48.30;;;18.32;51.53;100933.84;12235945;19;20346;-84
2022/06/07 02:42:07;;;;;;;2.50;2.30;;;20.10;48.40;;;18.24;51.59;100942.41;12236057;19;20645;-84
2022/06/07 02:46:09;;;;;;;2.70;2.50;;;20.20;48.40;;;18.16;51.52;100929.00;12237017;19;20015;-83
2022/06/07 02:50:13;;;;;;;2.88;2.30;;;20.20;48.20;;;17.81;51.51;100882.59;12236584;19;20090;-84
2022/06/07 02:54:19;;;;;;;2.67;2.47;;;20.10;48.10;;;18.10;51.66;100929.53;12236854;19;20014;-83
2022/06/07 02:58:20;;;;;;;2.50;2.30;;;20.10;48.40;;;18.01;51.58;100930.28;12236524;19;20077;-84
2022/06/07 03:02:23;;;;;;;2.50;2.35;;;20.00;48.20;;;18.08;51.69;100936.75;12237159;19;20021;-83
2022/06/07 03:06:25;;;;;;;2.58;2.38;;;20.10;48.40;;;18.11;51.80;100955.81;12256987;19;20027;-84
2022/06/07 03:10:28;;;;;;;3.60;2.40;;;20.00;48.50;;;18.07;51.80;100949.13;12260870;19;20026;-83
2022/06/07 03:14:30;;;;;;;2.45;2.25;;;20.00;48.50;;;18.06;51.72;100936.84;12256842;19;20026;-84
2022/06/07 03:18:35;;;;;;;2.65;2.45;;;20.00;48.50;;;18.11;51.85;100945.25;12257812;19;20374;-84
2022/06/07 03:22:38;;;;;;;2.65;2.45;;;20.00;48.60;;;18.19;51.84;100955.19;12257062;19;20011;-84
2022/06/07 03:26:40;;;;;;;3.55;2.88;;;20.00;48.80;;;18.21;52.06;100952.41;12255603;19;20028;-84
2022/06/07 03:30:46;;;;;;;4.00;3.10;;;20.00;49.00;;;18.14;51.99;100952.91;12257240;19;20013;-83
2022/06/07 03:34:54;;;;;;;4.03;2.78;;;20.00;49.10;;;17.99;51.97;100942.81;12260771;19;20014;-84
2022/06/07 03:39:02;;;;;;;4.18;2.53;;;19.90;49.10;;;17.95;52.18;100936.91;12260486;19;20013;-84
2022/06/07 03:43:07;;;;;;;2.97;2.67;;;20.10;49.40;;;17.92;52.08;100943.28;12258593;19;20019;-82
2022/06/07 03:47:11;;;;;;;3.10;2.78;;;19.90;49.30;;;17.91;52.17;100954.00;12257761;19;20456;-83
2022/06/07 03:51:17;;;;;;;3.08;2.80;;;19.90;49.30;;;17.91;52.80;100952.19;12260354;19;20026;-82
2022/06/07 03:55:19;;;;;;;3.40;3.10;;;19.80;49.70;;;17.79;52.63;100934.69;12259327;19;20496;-82
2022/06/07 03:59:37;;;;;;;3.40;3.10;;;19.80;49.70;;;17.80;52.50;100932.91;12254623;19;20516;-81
2022/06/07 04:03:43;;;;;;;3.05;2.83;;;19.80;49.70;;;17.80;52.71;100933.75;12256484;19;20035;-82
2022/06/07 04:12:14;;;;;;;3.30;2.95;;;19.80;50.00;;;18.07;53.24;100961.50;12259186;19;20388;-83
2022/06/07 04:16:21;;;;;;;3.63;2.97;;;19.90;50.50;;;18.12;53.23;100960.16;12247050;19;20044;-83
2022/06/07 04:20:29;;;;;;;3.55;3.17;;;19.90;51.10;;;18.21;52.88;100952.41;12245154;19;20002;-83
2022/06/07 04:24:33;;;;;;;3.07;2.20;;;20.00;50.70;;;18.23;52.89;100958.44;12243145;19;20019;-84
2022/06/07 04:28:36;;;;;;;3.05;2.85;;;20.10;50.60;;;18.28;53.29;100951.78;12238908;19;20021;-80
2022/06/07 04:32:43;;;;;;;2.95;2.72;;;20.10;50.60;;;18.24;53.01;100931.84;12240200;19;20011;-80
2022/06/07 04:36:46;;;;;;;3.47;2.58;;;20.20;50.70;;;18.51;53.25;100970.97;12237321;19;20014;-80
2022/06/07 04:40:51;;;;;;;2.63;2.42;;;20.30;50.70;;;18.62;52.87;100961.31;12241642;19;20374;-80
2022/06/07 04:44:54;;;;;;;2.35;2.22;;;20.30;50.40;;;18.68;52.90;100966.88;12239737;19;20029;-80
2022/06/07 04:49:05;;;;;;;2.85;2.15;;;20.50;50.30;;;18.62;52.87;100948.06;12242530;19;20037;-80
2022/06/07 04:53:08;;;;;;;2.20;2.00;;;20.40;50.10;;;18.66;53.01;100946.81;12240117;19;20092;-80
2022/06/07 04:57:11;;;;;;;2.47;2.28;;;20.70;50.10;;;18.72;53.10;100943.66;12239042;19;20363;-80
2022/06/07 05:01:30;;;;;;;1.95;1.85;;;20.50;49.90;;;18.79;53.09;100942.19;12238102;19;20370;-80
2022/06/07 05:05:36;;;;;;;2.25;1.88;;;20.80;50.00;;;18.91;52.86;100967.59;12239152;19;20022;-80
2022/06/07 05:09:43;;;;;;;2.22;2.13;;;20.70;49.80;;;18.62;52.73;100924.25;12238649;19;20022;-80
2022/06/07 05:14:00;;;;;;;1.85;1.75;;;21.10;49.90;;;18.94;53.00;100972.63;12239941;19;20015;-80
2022/06/07 05:18:03;;;;;;;2.15;1.95;;;20.70;50.10;;;18.90;53.07;100963.28;12235650;19;20047;-80
2022/06/07 05:22:07;;;;;;;2.73;2.20;;;20.80;49.80;;;18.75;52.73;100938.97;12237847;19;20332;-80
2022/06/07 05:26:27;;;;;;;2.28;2.08;;;21.00;49.90;;;18.97;52.96;100977.66;12235977;19;20018;-79
2022/06/07 05:30:33;;;;;;;1.77;1.67;;;20.70;49.90;;;18.72;53.03;100936.56;12239713;19;20488;-80
2022/06/07 05:34:52;;;;;;;2.65;1.80;;;20.80;49.80;;;19.06;53.12;100985.75;12239403;19;20014;-80
2022/06/07 05:38:56;;;;;;;2.80;2.15;;;20.80;50.00;;;18.78;52.96;100929.94;12237645;19;20033;-80
2022/06/07 05:43:00;;;;;;;2.67;1.95;;;20.80;50.00;;;19.08;53.03;100979.38;12238541;19;20085;-80
2022/06/07 05:47:15;;;;;;;2.03;1.85;;;21.00;50.20;;;19.19;53.12;100975.78;12235440;19;20026;-79
2022/06/07 05:51:23;;;;;;;2.30;2.10;;;21.00;50.10;;;19.38;53.03;100997.00;12239216;19;20047;-80
2022/06/07 05:55:26;;;;;;;2.50;1.65;;;21.10;50.10;;;19.36;53.09;100975.16;12234368;19;20032;-79
2022/06/07 05:59:29;;;;;;;3.25;1.92;;;21.20;50.10;;;19.50;52.87;100988.97;12238669;19;20018;-79
2022/06/07 06:03:32;;;;;;;2.42;2.03;;;21.20;50.00;;;19.45;53.30;100973.50;12232341;19;20029;-79
2022/06/07 06:07:35;;;;;;;1.98;1.60;;;21.30;50.00;;;19.62;52.94;100988.72;12236044;19;20009;-79
2022/06/07 06:11:37;;;;;;;1.80;1.50;;;21.40;49.90;;;19.57;52.67;100964.44;12234151;19;20494;-79
2022/06/07 06:16:09;;;;;;;1.60;1.50;;;21.60;49.80;;;19.83;53.03;100983.34;12235260;19;20018;-80
2022/06/07 06:20:16;;;;;;;11.57;2.00;;;21.60;49.50;;;19.99;52.63;100992.56;12234450;19;20018;-80
2022/06/07 06:24:25;;;;;;;1.60;1.45;;;21.70;49.30;;;20.04;52.83;100987.69;12236789;19;20424;-80
2022/06/07 06:28:30;;;;;;;1.33;1.20;;;21.80;49.00;;;20.13;52.43;100986.00;12236151;19;20018;-80
2022/06/07 06:32:34;;;;;;;2.25;1.30;;;21.90;48.20;;;20.26;52.05;101003.28;12234133;19;20014;-80
2022/06/07 06:36:39;;;;;;;1.00;1.00;;;22.00;48.20;;;20.31;51.90;101014.31;12234503;19;20074;-80
2022/06/07 06:40:44;;;;;;;2.50;0.90;;;22.00;47.80;;;20.44;51.98;101021.13;12233015;19;20484;-80
2022/06/07 06:44:46;;;;;;;1.92;1.30;;;22.10;47.60;;;20.27;51.77;100986.38;12234954;19;20355;-80
2022/06/07 06:48:49;;;;;;;1.27;0.90;;;22.20;47.40;;;20.53;51.55;101013.19;12232255;19;20483;-80
2022/06/07 06:52:51;;;;;;;0.85;0.85;;;22.50;47.00;;;20.34;51.54;100973.41;12234602;19;20036;-80
2022/06/07 06:56:56;;;;;;;0.80;0.80;;;22.40;46.50;;;20.48;51.30;100990.69;12232301;19;20010;-80
2022/06/07 07:01:09;;;;;;;1.08;0.95;;;22.70;46.60;;;20.71;51.23;101026.59;12232124;19;20018;-79
2022/06/07 07:05:15;;;;;;;0.80;0.80;;;22.40;46.40;;;20.61;51.13;100996.56;12232997;19;20330;-79
2022/06/07 07:09:26;;;;;;;1.00;1.00;;;22.50;46.30;;;20.32;50.73;100947.00;12234410;19;20031;-80
2022/06/07 07:13:31;;;;;;;1.15;1.10;;;22.80;46.20;;;20.90;50.82;101032.78;12234131;19;20033;-78
2022/06/07 07:17:33;;;;;;;2.10;1.30;;;22.60;46.30;;;20.93;50.88;101019.25;12228227;19;20026;-79
2022/06/07 07:21:41;;;;;;;1.00;0.90;;;22.60;46.30;;;20.91;50.57;101007.94;12232742;19;20007;-79
2022/06/07 07:25:46;;;;;;;2.90;0.80;;;22.70;46.20;;;21.08;50.49;101019.63;12229667;19;20018;-79
2022/06/07 07:29:50;;;;;;;1.35;1.10;;;22.80;45.80;;;20.98;50.33;101003.69;12234498;19;20017;-79
2022/06/07 07:33:59;;;;;;;1.23;1.10;;;22.90;46.10;;;21.12;50.34;101027.16;12230263;19;20025;-79
2022/06/07 07:38:02;;;;;;;1.58;1.10;;;22.80;45.50;;;21.10;50.09;101007.03;12230557;19;20514;-79
2022/06/07 07:42:05;;;;;;;1.90;1.20;;;22.90;45.40;;;21.09;49.99;101008.84;12231053;19;20085;-79
2022/06/07 07:46:12;;;;;;;1.30;1.20;;;22.90;45.60;;;21.21;50.32;100999.69;12231495;19;20010;-79
2022/06/07 07:50:15;;;;;;;1.10;1.00;;;23.00;45.50;;;21.29;49.88;101003.44;12234337;19;20015;-80
2022/06/07 07:54:24;;;;;;;3.30;1.40;;;23.00;45.30;;;21.41;49.74;101007.59;12242881;19;20022;-79
2022/06/07 07:58:28;;;;;;;3.60;1.08;;;23.10;45.10;;;21.37;49.78;101003.53;12244331;19;20022;-78
2022/06/07 08:02:30;;;;;;;1.48;0.95;;;23.20;45.00;;;21.51;49.65;101024.31;12239783;19;20034;-78
2022/06/07 08:06:39;;;;;;;0.93;0.90;;;23.40;45.10;;;21.38;49.42;100987.47;12238417;19;20039;-78
2022/06/07 08:10:41;;;;;;;1.40;1.13;;;23.20;44.90;;;21.53;49.66;101003.75;12245172;19;20495;-78
2022/06/07 08:14:43;;;;;;;2.13;0.85;;;23.30;44.60;;;21.53;49.19;100995.78;12242653;19;20150;-78
2022/06/07 08:18:45;;;;;;;0.70;0.70;;;23.30;44.60;;;21.61;49.07;101003.84;12244265;19;20007;-79
2022/06/07 08:22:47;;;;;;;1.05;0.90;;;23.40;44.50;;;21.61;49.14;100998.53;12242100;19;20082;-78
2022/06/07 08:26:49;;;;;;;2.47;1.20;;;23.40;44.00;;;21.68;49.08;100992.59;12239467;19;20044;-78
2022/06/07 08:30:51;;;;;;;0.85;0.85;;;23.40;44.20;;;21.86;48.83;101012.06;12243536;19;20474;-78
2022/06/07 08:39:14;;;;;;;1.20;1.00;;;23.70;43.80;;;21.97;48.70;100985.25;12243306;19;20085;-79
2022/06/07 08:43:20;;;;;;;1.13;1.08;;;23.70;43.30;;;22.10;48.05;100992.84;12237526;19;20022;-79
2022/06/07 08:47:46;;;;;;;2.58;1.33;;;23.90;43.20;;;22.31;48.12;100992.56;12238169;19;20029;-79
2022/06/07 08:51:50;;;;;;;0.93;0.93;;;23.80;43.40;;;22.56;47.89;100979.41;12238047;19;20014;-78
2022/06/07 08:55:59;;;;;;;0.80;0.80;;;24.00;43.20;;;22.71;48.12;100973.38;12238979;19;20030;-78
2022/06/07 09:00:27;;;;;;;0.90;0.90;;;24.20;43.20;;;22.85;47.66;100969.28;12241569;19;20014;-78
2022/06/07 09:04:40;;;;;;;0.82;0.82;;;24.30;43.00;;;23.04;47.63;100967.41;12235156;19;20480;-79
2022/06/07 09:08:50;;;;;;;2.22;1.00;;;24.60;42.80;;;23.35;47.38;100960.50;12237649;19;20011;-79
2022/06/07 09:13:20;;;;;;;1.08;0.90;;;24.70;42.70;;;23.41;46.96;100927.88;12240738;19;20016;-78
2022/06/07 09:17:30;;;;;;;0.73;0.73;;;25.00;41.90;;;23.75;46.70;100950.13;12233730;19;20484;-79
2022/06/07 09:21:37;;;;;;;0.70;0.70;;;25.10;41.80;;;23.90;46.65;100950.28;12238911;19;20002;-79
2022/06/07 09:25:48;;;;;;;0.75;0.75;;;25.40;42.00;;;24.11;46.24;100939.09;12232661;19;20006;-79
2022/06/07 09:30:25;;;;;;;1.08;0.90;;;25.50;41.80;;;24.15;46.41;100911.94;12240544;19;20010;-79
2022/06/07 09:34:29;;;;;;;0.63;0.47;;;25.70;41.70;;;24.43;45.81;100935.56;12240031;19;20015;-79
2022/06/07 09:38:37;;;;;;;0.80;0.80;;;25.90;41.30;;;24.57;45.98;100937.56;12240501;19;20011;-79
2022/06/07 09:42:39;;;;;;;3.38;0.80;;;26.00;40.90;;;24.47;45.82;100907.56;12237295;19;20074;-79
2022/06/07 09:46:50;;;;;;;0.85;0.75;;;26.10;40.70;;;24.62;45.51;100891.66;12234636;19;20010;-78
2022/06/07 09:51:19;;;;;;;0.63;0.63;;;26.20;40.50;;;24.79;44.84;100898.59;12236246;19;20082;-79
2022/06/07 09:55:35;;;;;;;0.70;0.70;;;26.30;40.10;;;24.78;44.79;100898.75;12237365;19;20026;-79
2022/06/07 09:59:49;;;;;;;1.35;0.90;;;26.40;40.50;;;24.86;45.04;100899.56;12238492;19;20010;-79
2022/06/07 10:04:24;;;;;;;1.15;0.90;;;26.50;40.20;;;24.83;44.62;100891.06;12234615;19;20015;-79
2022/06/07 10:08:57;;;;;;;0.70;0.70;;;26.50;39.60;;;24.95;44.22;100895.00;12229924;19;20018;-79
2022/06/07 10:13:41;;;;;;;0.93;0.70;;;26.60;39.50;;;25.10;44.63;100895.09;12234390;19;20007;-79
2022/06/07 10:18:15;;;;;;;0.73;0.73;;;26.60;39.90;;;25.13;44.21;100876.03;12232194;19;20097;-79
2022/06/07 10:22:54;;;;;;;2.72;0.80;;;26.70;40.20;;;25.28;44.01;100881.50;12236243;19;20422;-79
2022/06/07 10:27:16;;;;;;;3.45;0.80;;;26.80;39.90;;;25.44;44.00;100877.88;12234015;19;20021;-79
2022/06/07 10:31:39;;;;;;;4.97;1.10;;;26.90;39.70;;;25.50;43.87;100880.66;12238795;19;20015;-79
2022/06/07 10:36:23;;;;;;;2.67;0.93;;;27.00;40.10;;;25.49;43.76;100881.69;12234899;19;20010;-79
2022/06/07 10:41:01;;;;;;;1.05;1.05;;;27.00;39.90;;;25.36;43.50;100862.75;12237721;19;20010;-78
2022/06/07 10:45:16;;;;;;;1.52;0.90;;;27.00;39.10;;;25.38;43.57;100869.56;12233773;19;20046;-79
2022/06/07 10:50:00;;;;;;;2.25;0.80;;;27.00;39.30;;;25.42;43.52;100866.53;12232567;19;20040;-78
2022/06/07 10:54:07;;;;;;;2.33;0.90;;;27.00;39.20;;;25.39;43.28;100862.38;12235814;19;20034;-79
2022/06/07 10:58:31;;;;;;;3.55;1.13;;;27.00;38.70;;;25.37;42.99;100854.53;12228892;19;20369;-78
2022/06/07 11:02:50;;;;;;;2.78;0.82;;;27.00;38.70;;;25.44;42.95;100857.34;12233573;19;20362;-79
2022/06/07 11:11:15;;;;;;;0.90;0.80;;;27.20;39.50;;;25.41;43.18;100855.00;12235222;19;20091;-79
2022/06/07 11:15:42;;;;;;;1.63;0.70;;;27.10;39.00;;;25.52;42.93;100849.25;12230935;19;20047;-79
2022/06/07 11:19:46;;;;;;;0.70;0.70;;;27.10;39.10;;;25.61;42.77;100858.84;12234485;19;20029;-79
2022/06/07 11:24:02;;;;;;;1.27;1.17;;;27.20;38.40;;;25.70;41.87;100840.88;12229776;19;20019;-79
2022/06/07 11:28:12;;;;;;;0.70;0.70;;;27.20;38.10;;;25.80;42.54;100836.09;12242349;19;20018;-79
2022/06/07 11:32:48;;;;;;;0.70;0.70;;;27.30;38.60;;;25.98;41.98;100849.19;12245387;19;20021;-79
2022/06/07 11:36:55;;;;;;;;;;;27.40;38.30;;;26.04;42.82;100852.97;12244236;19;20018;-79
2022/06/07 11:41:38;;;;;;;1.33;0.70;;;27.50;39.50;;;25.98;42.35;100859.91;12242902;19;19919;-79
2022/06/07 11:45:52;;;;;;;0.70;0.70;;;27.60;39.00;;;25.82;41.50;100855.50;12244038;19;20015;-78
2022/06/07 11:49:57;;;;;;;2.30;0.80;;;27.50;37.60;;;25.76;42.18;100853.56;12242786;19;20048;-79
2022/06/07 11:54:04;;;;;;;0.95;0.90;;;27.50;37.90;;;25.72;41.66;100859.44;12245291;19;20010;-78
2022/06/07 11:58:07;;;;;;;1.27;0.90;;;27.50;37.70;;;25.59;41.81;100842.16;12237759;19;20501;-78
2022/06/07 12:02:21;;;;;;;0.73;0.70;;;27.40;37.70;;;25.57;41.56;100846.00;12241769;19;20645;-78
2022/06/07 12:06:25;;;;;;;4.00;0.98;;;27.30;37.60;;;25.47;42.02;100832.06;12239228;19;20007;-78
2022/06/07 12:10:34;;;;;;;1.13;0.70;;;27.20;37.80;;;25.53;41.85;100850.06;12245020;19;20376;-79
2022/06/07 12:14:42;;;;;;;0.73;0.73;;;27.20;38.00;;;25.55;41.52;100838.19;12242593;19;20378;-79
2022/06/07 12:18:52;;;;;;;3.22;1.00;;;27.20;38.00;;;25.46;41.36;100833.06;12242545;19;20018;-79
2022/06/07 12:23:02;;;;;;;1.00;1.00;;;27.20;38.20;;;25.46;41.55;100831.22;12241247;19;20010;-79
2022/06/07 12:27:44;;;;;;;1.15;1.05;;;27.10;38.10;;;25.45;41.54;100834.91;12242108;19;20007;-78
2022/06/07 12:32:17;;;;;;;0.88;0.88;;;27.10;38.40;;;25.37;41.93;100838.47;12240735;19;20524;-78
2022/06/07 12:36:25;;;;;;;0.80;0.80;;;27.00;38.20;;;25.20;41.55;100822.75;12235646;19;20045;-78
2022/06/07 12:40:45;;;;;;;1.25;0.85;;;27.00;38.30;;;25.16;41.85;100831.09;12239994;19;20105;-78
2022/06/07 12:45:01;;;;;;;0.88;0.88;;;26.90;38.30;;;25.09;41.58;100827.47;12243242;19;20039;-78
2022/06/07 12:49:19;;;;;;;3.00;0.90;;;26.80;38.20;;;25.07;41.87;100829.47;12239495;19;20495;-78
2022/06/07 12:53:27;;;;;;;1.50;0.93;;;26.70;38.20;;;25.14;41.55;100827.78;12241816;19;20039;-79
2022/06/07 12:57:35;;;;;;;1.65;1.10;;;26.80;38.40;;;25.15;41.84;100812.59;12236842;19;20010;-78
2022/06/07 13:01:41;;;;;;;1.10;1.10;;;26.80;38.30;;;25.23;41.72;100817.06;12239063;19;20066;-79
2022/06/07 13:05:43;;;;;;;3.80;1.20;;;26.80;38.00;;;25.13;41.25;100802.03;12237437;19;20018;-78
2022/06/07 13:09:53;;;;;;;1.42;0.90;;;26.80;37.80;;;25.09;41.18;100787.38;12240589;19;20038;-78
2022/06/07 13:13:55;;;;;;;1.15;1.08;;;26.80;38.10;;;25.17;40.99;100782.00;12239522;19;20014;-78
2022/06/07 13:18:31;;;;;;;1.25;1.23;;;26.80;37.70;;;25.36;41.17;100804.75;12239112;19;20030;-78
2022/06/07 13:22:42;;;;;;;1.92;0.90;;;26.90;37.70;;;25.29;40.95;100800.28;12239531;19;20475;-78
2022/06/07 13:26:45;;;;;;;0.90;0.90;;;26.90;37.60;;;25.24;41.58;100786.63;12236061;19;20082;-78
2022/06/07 13:30:54;;;;;;;1.48;1.10;;;26.90;37.80;;;25.39;41.22;100806.22;12239320;19;20114;-78
2022/06/07 13:35:03;;;;;;;1.40;1.08;;;26.90;38.10;;;25.42;41.34;100797.84;12227276;19;20018;-78
2022/06/07 13:39:17;;;;;;;3.63;1.40;;;27.00;38.00;;;25.43;41.46;100796.81;12229643;19;20014;-78
2022/06/07 13:43:24;;;;;;;1.17;1.08;;;27.00;38.00;;;25.37;40.81;100786.84;12234028;19;20496;-78
2022/06/07 13:47:34;;;;;;;5.88;1.27;;;27.10;37.90;;;25.43;41.06;100794.16;12233896;19;20085;-79
2022/06/07 13:56:05;;;;;;;0.77;0.77;;;27.00;38.00;;;25.40;41.24;100786.50;12233294;19;20011;-77
2022/06/07 14:00:07;;;;;;;2.13;0.93;;;27.00;37.90;;;25.34;40.94;100790.72;12238237;19;20042;-77
2022/06/07 14:04:31;;;;;;;1.48;1.10;;;27.00;38.00;;;25.30;40.71;100786.75;12220545;19;20015;-78
2022/06/07 14:08:33;;;;;;;1.15;0.80;;;27.00;38.10;;;25.30;41.35;100784.09;12231965;19;20010;-79
2022/06/07 14:12:34;;;;;;;3.30;1.20;;;26.90;37.80;;;25.36;40.90;100779.84;12233901;19;20665;-78
2022/06/07 14:16:49;;;;;;;0.95;0.95;;;27.00;37.80;;;25.41;41.02;100772.13;12234960;19;20081;-79
2022/06/07 14:20:51;;;;;;;1.10;1.10;;;27.00;37.80;;;25.51;40.80;100774.53;12235601;19;20780;-79
2022/06/07 14:24:53;;;;;;;3.67;1.00;;;27.00;37.80;;;25.47;40.69;100750.00;12235198;19;20279;-78
2022/06/07 14:28:55;;;;;;;0.85;0.63;;;27.10;37.20;;;25.65;40.53;100746.13;12233995;19;20022;-78
2022/06/07 14:33:00;;;;;;;0.98;0.88;;;27.20;37.90;;;25.95;40.62;100771.94;12234835;19;20015;-78
2022/06/07 14:37:03;;;;;;;1.15;0.68;;;27.30;37.50;;;25.98;40.49;100735.97;12228718;19;20019;-79
2022/06/07 14:41:05;;;;;;;0.70;0.70;;;27.40;37.20;;;26.02;40.03;100747.94;12235069;19;20022;-78
2022/06/07 14:45:09;;;;;;;0.82;0.60;;;27.50;36.70;;;26.07;39.58;100752.75;12231691;19;20022;-79
2022/06/07 14:49:33;;;;;;;0.52;0.52;;;27.50;36.30;;;26.04;39.59;100746.75;12235022;19;20090;-78
2022/06/07 14:53:34;;;;;;;0.57;0.50;;;27.80;36.40;;;26.04;39.48;100748.59;12216278;19;20011;-79
2022/06/07 14:57:39;;;;;;;0.60;0.60;;;27.60;36.40;;;25.96;39.27;100735.31;12213722;19;20030;-78
2022/06/07 15:02:04;;;;;;;0.63;0.63;;;27.60;35.90;;;25.89;39.32;100713.78;12218413;19;20090;-77
2022/06/07 15:06:13;;;;;;;;;;;27.60;36.00;;;25.99;39.63;100727.72;12214860;19;20025;-79
2022/06/07 15:10:19;;;;;;;0.50;0.50;;;27.60;37.00;;;25.98;38.88;100747.50;12223234;19;19919;-77
2022/06/07 15:14:22;;;;;;;0.55;0.50;;;27.60;35.70;;;25.81;38.57;100724.56;12218750;19;20025;-77
2022/06/07 15:18:38;;;;;;;0.60;0.60;;;27.50;35.50;;;25.85;38.79;100712.53;12220196;19;20014;-77
2022/06/07 15:22:39;;;;;;;3.33;0.90;;;27.50;35.60;;;25.89;38.95;100716.47;12218115;19;20623;-77
2022/06/07 15:26:42;;;;;;;0.90;0.65;;;27.60;36.20;;;25.98;38.88;100714.56;12216145;19;20373;-79
2022/06/07 15:30:44;;;;;;;1.10;0.77;;;27.50;35.80;;;26.09;38.74;100726.63;12221066;19;20086;-79
2022/06/07 15:34:49;;;;;;;1.25;0.73;;;27.50;35.20;;;25.92;38.37;100694.69;12218893;19;20052;-79
2022/06/07 15:38:52;;;;;;;;;;;27.60;35.50;;;26.19;38.72;100714.63;12217856;19;20397;-79
2022/06/07 15:42:58;;;;;;;0.82;0.50;;;27.60;36.80;;;26.13;38.40;100696.59;12214122;19;19976;-79
2022/06/07 15:47:00;;;;;;;0.60;0.60;;;27.70;35.30;;;26.26;38.04;100715.50;12216309;19;20010;-78
2022/06/07 15:51:02;;;;;;;0.50;0.50;;;27.80;35.10;;;26.12;37.83;100684.25;12217507;19;20557;-78
2022/06/07 15:55:11;;;;;;;0.40;0.40;;;27.80;34.50;;;26.31;37.40;100714.97;12217693;19;20142;-77
2022/06/07 15:59:13;;;;;;;0.52;0.50;;;27.80;34.40;;;26.26;37.79;100699.44;12215776;19;20022;-78
2022/06/07 16:03:15;;;;;;;0.60;0.60;;;27.90;34.50;;;26.40;37.20;100711.13;12212392;19;20018;-77
2022/06/07 16:07:19;;;;;;;0.50;0.50;;;27.90;34.40;;;26.44;37.56;100703.56;12217489;19;20023;-79
2022/06/07 16:11:23;;;;;;;0.50;0.40;;;27.90;34.40;;;26.58;36.99;100700.03;12223701;19;20022;-78
2022/06/07 16:15:29;;;;;;;0.57;0.50;;;28.00;34.10;;;26.70;36.52;100700.34;12230727;19;20035;-79
2022/06/07 16:19:31;;;;;;;0.30;0.30;;;28.10;33.90;;;26.78;36.59;100694.88;12230709;19;20040;-79
2022/06/07 16:23:32;;;;;;;0.50;0.50;;;28.20;33.80;;;26.87;36.46;100701.78;12220219;19;20018;-79
2022/06/07 16:36:19;;;;;;;0.98;0.60;;;28.40;33.30;;;26.83;35.66;100687.09;12231619;19;20018;-79
2022/06/07 16:40:20;;;;;;;1.52;0.40;;;28.50;33.30;;;26.63;35.98;100665.47;12233813;19;20013;-80
2022/06/07 16:44:22;;;;;;;4.57;0.50;;;28.40;33.20;;;26.78;35.95;100686.81;12227042;19;20014;-78
2022/06/07 16:48:25;;;;;;;6.78;0.50;;;28.40;33.10;;;26.85;35.91;100700.31;12226580;19;20447;-78
2022/06/07 16:52:26;;;;;;;0.50;0.45;;;28.40;33.40;;;26.57;35.40;100654.69;12233356;19;20010;-79
2022/06/07 16:56:28;;;;;;;1.17;0.50;;;28.40;33.10;;;26.77;35.44;100703.94;12226980;19;20050;-80
2022/06/07 17:00:31;;;;;;;0.52;0.50;;;28.40;32.80;;;26.67;35.38;100709.59;12232044;19;20022;-78
2022/06/07 17:04:33;;;;;;;0.90;0.50;;;28.30;32.90;;;26.40;35.48;100684.34;12229000;19;20022;-79
2022/06/07 17:08:34;;;;;;;0.50;0.50;;;28.20;32.90;;;26.42;35.48;100694.88;12231658;19;20106;-80
2022/06/07 17:12:36;;;;;;;0.85;0.55;;;28.10;32.90;;;26.41;35.38;100696.75;12231582;19;20039;-80
2022/06/07 17:16:40;;;;;;;0.88;0.45;;;28.20;32.90;;;26.57;35.21;100714.47;12228237;19;20829;-79
2022/06/07 17:20:43;;;;;;;1.42;0.70;;;28.10;32.90;;;26.50;35.28;100713.53;12227728;19;20022;-79
2022/06/07 17:24:45;;;;;;;0.90;0.50;;;28.10;33.30;;;26.45;35.36;100703.38;12225223;19;20602;-79
2022/06/07 17:28:48;;;;;;;0.50;0.50;;;28.10;33.10;;;26.44;35.51;100704.41;12226793;19;20063;-80
2022/06/07 17:32:51;;;;;;;0.50;0.50;;;28.00;32.90;;;26.43;35.55;100716.09;12228226;19;20386;-79
2022/06/07 17:36:53;;;;;;;0.50;0.50;;;28.10;33.10;;;26.45;35.47;100711.41;12226320;19;20082;-80
2022/06/07 17:40:55;;;;;;;0.80;0.70;;;28.10;33.30;;;26.32;35.54;100694.34;12227647;19;20022;-79